createdAt,value
2022-11-30T00:01:13.214Z,5.54
2022-11-30T00:03:39.752Z,5.56
2022-11-30T00:06:07.965Z,5.53
2022-11-30T00:08:34.471Z,5.50
2022-11-30T00:11:01.111Z,5.48
2022-11-30T00:13:27.628Z,5.48
2022-11-30T00:15:54.042Z,5.47
2022-11-30T00:18:20.605Z,5.46
2022-11-30T00:20:46.957Z,5.46
2022-11-30T00:23:13.366Z,5.41
2022-11-30T00:25:39.762Z,5.48
2022-11-30T00:28:06.230Z,5.49
2022-11-30T00:30:32.684Z,5.49
2022-11-30T00:32:59.235Z,5.52
2022-11-30T00:35:25.699Z,5.53
2022-11-30T00:37:52.250Z,5.54
2022-11-30T00:40:18.702Z,5.53
2022-11-30T00:42:45.142Z,5.56
2022-11-30T00:45:11.562Z,5.54
2022-11-30T00:47:38.069Z,5.51
2022-11-30T00:50:05.007Z,5.56
2022-11-30T00:52:31.492Z,5.58
2022-11-30T00:54:57.914Z,5.55
2022-11-30T00:57:24.306Z,5.54
2022-11-30T00:59:50.736Z,5.52
2022-11-30T01:02:18.777Z,5.50
2022-11-30T01:04:45.477Z,5.54
2022-11-30T01:07:12.017Z,5.59
2022-11-30T01:09:38.528Z,5.53
2022-11-30T01:12:05.040Z,5.50
2022-11-30T01:14:31.432Z,5.52
2022-11-30T01:16:58.972Z,5.49
2022-11-30T01:19:25.495Z,5.39
2022-11-30T01:21:51.909Z,5.29
2022-11-30T01:24:18.301Z,5.26
2022-11-30T01:26:44.711Z,5.30
2022-11-30T01:29:11.099Z,5.39
2022-11-30T01:31:37.528Z,5.40
2022-11-30T01:34:03.976Z,5.32
2022-11-30T01:36:30.383Z,5.28
2022-11-30T01:38:58.200Z,5.14
2022-11-30T01:41:30.795Z,5.02
2022-11-30T01:44:06.281Z,4.93
2022-11-30T01:47:11.510Z,4.93
2022-11-30T01:49:44.085Z,4.90
2022-11-30T01:52:24.697Z,4.86
2022-11-30T01:54:56.946Z,4.87
2022-11-30T01:57:34.545Z,4.85
2022-11-30T02:00:02.295Z,4.78
2022-11-30T02:02:40.398Z,4.70
2022-11-30T02:05:08.016Z,4.69
2022-11-30T02:07:35.191Z,4.64
2022-11-30T02:10:01.717Z,4.60
2022-11-30T02:12:39.879Z,4.53
2022-11-30T02:15:11.915Z,4.47
2022-11-30T02:18:14.461Z,4.41
2022-11-30T02:21:13.324Z,4.42
2022-11-30T02:23:58.046Z,4.39
2022-11-30T02:26:54.639Z,4.26
2022-11-30T02:29:49.665Z,4.31
2022-11-30T02:32:34.912Z,4.28
2022-11-30T02:35:04.145Z,4.20
2022-11-30T02:37:33.298Z,4.18
2022-11-30T02:39:59.804Z,4.15
2022-11-30T02:42:26.199Z,4.19
2022-11-30T02:44:54.044Z,4.31
2022-11-30T02:47:35.339Z,4.35
2022-11-30T02:50:10.232Z,4.33
2022-11-30T02:52:36.777Z,4.30
2022-11-30T02:55:07.100Z,4.42
2022-11-30T02:57:34.471Z,4.48
2022-11-30T03:00:03.949Z,4.53
2022-11-30T03:02:30.464Z,4.49
2022-11-30T03:04:56.987Z,4.48
2022-11-30T03:07:23.479Z,4.47
2022-11-30T03:09:50.287Z,4.40
2022-11-30T03:12:16.699Z,4.47
2022-11-30T03:14:43.087Z,4.59
2022-11-30T03:17:09.604Z,4.54
2022-11-30T03:19:36.007Z,4.61
2022-11-30T03:22:02.427Z,4.66
2022-11-30T03:24:28.891Z,4.68
2022-11-30T03:26:55.351Z,4.72
2022-11-30T03:29:21.929Z,4.79
2022-11-30T03:31:48.345Z,4.82
2022-11-30T03:34:14.854Z,4.86
2022-11-30T03:36:41.276Z,4.87
2022-11-30T03:39:07.777Z,4.83
2022-11-30T03:41:34.150Z,4.83
2022-11-30T03:44:00.651Z,4.90
2022-11-30T03:46:27.628Z,4.94
2022-11-30T03:48:54.364Z,5.00
2022-11-30T03:51:20.907Z,5.02
2022-11-30T03:53:47.450Z,5.04
2022-11-30T03:56:14.412Z,5.07
2022-11-30T03:58:40.979Z,5.03
2022-11-30T04:01:19.318Z,5.04
2022-11-30T04:03:45.802Z,5.09
2022-11-30T04:06:13.076Z,5.14
2022-11-30T04:08:40.275Z,5.14
2022-11-30T04:11:08.223Z,5.18
2022-11-30T04:13:36.224Z,5.18
2022-11-30T04:16:03.465Z,5.16
2022-11-30T04:18:32.221Z,5.19
2022-11-30T04:20:59.719Z,5.18
2022-11-30T04:23:30.135Z,5.16
2022-11-30T04:25:57.374Z,5.15
2022-11-30T04:28:23.817Z,5.20
2022-11-30T04:30:50.351Z,5.20
2022-11-30T04:33:17.219Z,5.19
2022-11-30T04:35:47.317Z,5.19
2022-11-30T04:38:14.098Z,5.23
2022-11-30T04:40:41.779Z,5.27
2022-11-30T04:43:09.417Z,5.24
2022-11-30T04:45:36.091Z,5.27
2022-11-30T04:48:03.639Z,5.26
2022-11-30T04:50:30.120Z,5.25
2022-11-30T04:52:57.378Z,5.24
2022-11-30T04:55:24.227Z,5.19
2022-11-30T04:57:50.764Z,5.22
2022-11-30T05:00:18.989Z,5.11
2022-11-30T05:02:52.221Z,5.21
2022-11-30T05:05:19.501Z,5.22
2022-11-30T05:07:50.596Z,5.24
2022-11-30T05:10:17.490Z,5.23
2022-11-30T05:12:43.917Z,5.19
2022-11-30T05:15:10.577Z,5.24
2022-11-30T05:17:37.043Z,5.24
2022-11-30T05:20:04.070Z,5.19
2022-11-30T05:22:30.692Z,5.21
2022-11-30T05:24:57.124Z,5.22
2022-11-30T05:27:23.535Z,5.22
2022-11-30T05:29:49.956Z,5.23
2022-11-30T05:32:16.337Z,5.22
2022-11-30T05:34:50.483Z,5.25
2022-11-30T05:37:18.056Z,5.28
2022-11-30T05:39:44.528Z,5.28
2022-11-30T05:42:10.904Z,5.27
2022-11-30T05:44:37.318Z,5.26
2022-11-30T05:47:04.038Z,5.26
2022-11-30T05:49:30.485Z,5.16
2022-11-30T05:51:56.850Z,5.26
2022-11-30T05:54:23.347Z,5.22
2022-11-30T05:56:54.490Z,5.27
2022-11-30T05:59:21.605Z,5.28
2022-11-30T06:01:48.157Z,5.27
2022-11-30T06:04:14.647Z,5.27
2022-11-30T06:06:41.057Z,5.27
2022-11-30T06:09:07.779Z,5.29
2022-11-30T06:11:35.250Z,5.33
2022-11-30T06:14:01.906Z,5.31
2022-11-30T06:16:28.511Z,5.34
2022-11-30T06:18:55.043Z,5.30
2022-11-30T06:21:24.605Z,5.32
2022-11-30T06:23:52.051Z,5.28
2022-11-30T06:26:18.493Z,5.29
2022-11-30T06:28:48.210Z,5.26
2022-11-30T06:31:16.005Z,5.31
2022-11-30T06:33:42.660Z,5.35
2022-11-30T06:36:09.486Z,5.35
2022-11-30T06:38:35.938Z,5.34
2022-11-30T06:41:10.383Z,5.33
2022-11-30T06:43:38.728Z,5.34
2022-11-30T06:46:06.913Z,5.32
2022-11-30T06:48:34.213Z,5.32
2022-11-30T06:51:00.688Z,5.30
2022-11-30T06:53:27.824Z,5.30
2022-11-30T06:55:54.548Z,5.32
2022-11-30T06:58:20.939Z,5.32
2022-11-30T07:00:47.720Z,5.28
2022-11-30T07:03:14.536Z,5.27
2022-11-30T07:05:43.957Z,5.26
2022-11-30T07:08:14.413Z,5.23
2022-11-30T07:10:45.752Z,5.22
2022-11-30T07:13:14.267Z,5.18
2022-11-30T07:15:42.277Z,5.21
2022-11-30T07:18:09.813Z,5.20
2022-11-30T07:20:37.560Z,5.21
2022-11-30T07:23:23.112Z,5.20
2022-11-30T07:26:09.399Z,5.21
2022-11-30T07:28:40.999Z,5.23
2022-11-30T07:31:17.508Z,5.22
2022-11-30T07:33:44.374Z,5.22
2022-11-30T07:36:11.232Z,5.19
2022-11-30T07:38:38.486Z,5.21
2022-11-30T07:41:05.531Z,5.20
2022-11-30T07:43:33.075Z,5.19
2022-11-30T07:46:00.711Z,5.16
2022-11-30T07:48:27.696Z,5.11
2022-11-30T07:50:54.456Z,5.04
2022-11-30T07:53:20.896Z,5.04
2022-11-30T07:55:48.271Z,5.04
2022-11-30T07:58:17.571Z,5.06
2022-11-30T08:00:44.427Z,5.07
2022-11-30T08:03:11.003Z,5.12
2022-11-30T08:05:37.468Z,5.12
2022-11-30T08:08:03.906Z,5.17
2022-11-30T08:10:30.439Z,5.17
2022-11-30T08:12:56.821Z,5.20
2022-11-30T08:15:27.529Z,5.15
2022-11-30T08:18:00.206Z,5.20
2022-11-30T08:20:26.691Z,5.28
2022-11-30T08:22:53.126Z,5.18
2022-11-30T08:25:19.519Z,5.28
2022-11-30T08:27:45.962Z,5.30
2022-11-30T08:30:12.672Z,5.35
2022-11-30T08:32:39.129Z,5.31
2022-11-30T08:35:06.063Z,5.37
2022-11-30T08:37:35.383Z,5.32
2022-11-30T08:40:01.810Z,5.41
2022-11-30T08:42:28.220Z,5.41
2022-11-30T08:44:55.769Z,5.46
2022-11-30T08:47:22.406Z,5.44
2022-11-30T08:49:49.042Z,5.47
2022-11-30T08:52:17.420Z,5.49
2022-11-30T08:54:46.594Z,5.49
2022-11-30T08:57:14.815Z,5.39
2022-11-30T08:59:41.217Z,5.37
2022-11-30T09:02:10.532Z,5.42
2022-11-30T09:04:38.033Z,5.38
2022-11-30T09:07:04.502Z,5.37
2022-11-30T09:09:31.458Z,5.42
2022-11-30T09:11:57.940Z,5.46
2022-11-30T09:14:24.446Z,5.54
2022-11-30T09:16:50.890Z,5.55
2022-11-30T09:19:17.308Z,5.48
2022-11-30T09:21:51.023Z,5.46
2022-11-30T09:24:18.192Z,5.40
2022-11-30T09:26:44.630Z,5.37
2022-11-30T09:29:11.028Z,5.36
2022-11-30T09:31:37.486Z,5.38
2022-11-30T09:34:03.931Z,5.35
2022-11-30T09:36:30.961Z,5.39
2022-11-30T09:38:57.477Z,5.41
2022-11-30T09:41:58.614Z,5.37
2022-11-30T09:44:43.465Z,5.47
2022-11-30T09:47:19.160Z,5.53
2022-11-30T09:49:48.586Z,5.69
2022-11-30T09:52:22.954Z,5.91
2022-11-30T09:54:49.746Z,5.97
2022-11-30T09:57:19.126Z,6.02
2022-11-30T09:59:53.402Z,6.09
2022-11-30T10:02:22.338Z,6.18
2022-11-30T10:04:49.473Z,6.13
2022-11-30T10:07:53.629Z,6.02
2022-11-30T10:10:46.489Z,5.86
2022-11-30T10:13:39.293Z,5.86
2022-11-30T10:16:16.659Z,6.06
2022-11-30T10:19:05.752Z,6.19
2022-11-30T10:21:41.210Z,6.21
2022-11-30T10:24:10.578Z,6.12
2022-11-30T10:26:43.071Z,6.04
2022-11-30T10:29:24.956Z,6.34
2022-11-30T10:31:57.094Z,6.43
2022-11-30T10:34:28.856Z,6.46
2022-11-30T10:37:12.738Z,6.41
2022-11-30T10:39:55.737Z,6.34
2022-11-30T10:42:34.470Z,6.25
2022-11-30T10:45:06.282Z,6.34
2022-11-30T10:47:37.270Z,6.83
2022-11-30T10:50:06.107Z,7.67
2022-11-30T10:52:48.486Z,8.09
2022-11-30T10:55:21.891Z,8.57
2022-11-30T10:57:54.146Z,9.05
2022-11-30T11:00:21.001Z,9.84
2022-11-30T11:02:49.384Z,10.86
2022-11-30T11:05:21.906Z,10.88
2022-11-30T11:07:52.329Z,10.72
2022-11-30T11:10:36.835Z,10.18
2022-11-30T11:13:05.106Z,9.77
2022-11-30T11:15:33.714Z,9.43
2022-11-30T11:18:22.853Z,9.00
2022-11-30T11:21:04.389Z,8.94
2022-11-30T11:23:42.533Z,8.72
2022-11-30T11:26:22.589Z,8.41
2022-11-30T11:28:51.824Z,8.33
2022-11-30T11:31:24.439Z,8.38
2022-11-30T11:33:54.162Z,8.54
2022-11-30T11:36:32.044Z,8.81
2022-11-30T11:38:59.196Z,9.09
2022-11-30T11:41:31.459Z,9.36
2022-11-30T11:44:10.097Z,9.35
2022-11-30T11:46:51.862Z,9.29
2022-11-30T11:49:22.890Z,9.19
2022-11-30T11:52:07.365Z,9.04
2022-11-30T11:54:43.251Z,8.88
2022-11-30T11:57:15.735Z,8.77
2022-11-30T12:00:05.406Z,8.61
2022-11-30T12:02:48.886Z,8.49
2022-11-30T12:05:26.870Z,8.34
2022-11-30T12:08:17.706Z,8.34
2022-11-30T12:11:00.493Z,8.32
2022-11-30T12:13:34.265Z,8.30
2022-11-30T12:16:39.599Z,8.38
2022-11-30T12:19:22.609Z,8.47
2022-11-30T12:22:07.470Z,8.54
2022-11-30T12:25:04.261Z,8.58
2022-11-30T12:27:35.212Z,8.55
2022-11-30T12:30:25.217Z,8.44
2022-11-30T12:33:10.440Z,8.35
2022-11-30T12:35:50.078Z,8.29
2022-11-30T12:38:39.337Z,8.17
2022-11-30T12:41:31.319Z,8.08
2022-11-30T12:44:23.363Z,8.02
2022-11-30T12:47:17.694Z,8.03
2022-11-30T12:50:10.540Z,8.04
2022-11-30T12:52:54.163Z,8.06
2022-11-30T12:55:48.393Z,8.02
2022-11-30T12:58:24.927Z,7.96
2022-11-30T13:01:13.799Z,8.02
2022-11-30T13:03:51.464Z,8.02
2022-11-30T13:06:26.971Z,8.07
2022-11-30T13:09:06.139Z,8.02
2022-11-30T13:11:37.612Z,7.89
2022-11-30T13:14:25.712Z,7.97
2022-11-30T13:17:06.144Z,7.94
2022-11-30T13:19:48.203Z,7.89
2022-11-30T13:22:26.413Z,7.86
2022-11-30T13:25:59.774Z,7.89
2022-11-30T13:28:19.372Z,7.85
2022-11-30T13:31:15.005Z,7.84
2022-11-30T13:33:49.013Z,7.82
2022-11-30T13:36:43.560Z,7.80
2022-11-30T13:39:25.227Z,7.80
2022-11-30T13:42:08.522Z,7.80
2022-11-30T13:44:38.178Z,7.79
2022-11-30T13:47:15.944Z,7.79
2022-11-30T13:49:42.526Z,7.74
2022-11-30T13:52:22.565Z,7.76
2022-11-30T13:54:54.585Z,7.73
2022-11-30T13:57:30.306Z,7.76
2022-11-30T14:00:01.485Z,7.75
2022-11-30T14:02:31.488Z,7.75
2022-11-30T14:05:16.446Z,7.73
2022-11-30T14:07:50.063Z,7.72
2022-11-30T14:10:30.745Z,7.71
2022-11-30T14:12:58.705Z,7.65
2022-11-30T14:15:45.458Z,7.68
2022-11-30T14:18:11.964Z,7.68
2022-11-30T14:20:50.596Z,7.67
2022-11-30T14:23:55.494Z,7.65
2022-11-30T14:26:32.470Z,7.65
2022-11-30T14:29:08.030Z,7.65
2022-11-30T14:31:40.811Z,7.63
2022-11-30T14:34:18.530Z,7.62
2022-11-30T14:36:50.776Z,7.59
2022-11-30T14:39:35.073Z,7.57
2022-11-30T14:42:03.496Z,7.56
2022-11-30T14:44:35.356Z,7.54
2022-11-30T14:47:20.613Z,7.53
2022-11-30T14:49:49.050Z,7.51
2022-11-30T14:52:38.517Z,7.50
2022-11-30T14:55:27.732Z,7.43
2022-11-30T14:58:07.134Z,7.49
2022-11-30T15:00:39.715Z,7.46
2022-11-30T15:03:17.567Z,7.45
2022-11-30T15:05:44.442Z,7.44
2022-11-30T15:08:16.368Z,7.41
2022-11-30T15:10:43.666Z,7.38
2022-11-30T15:13:14.640Z,7.38
2022-11-30T15:15:52.996Z,7.37
2022-11-30T15:18:22.319Z,7.37
2022-11-30T15:20:57.414Z,7.36
2022-11-30T15:23:23.988Z,7.33
2022-11-30T15:26:04.302Z,7.35
2022-11-30T15:28:38.706Z,7.34
2022-11-30T15:31:10.630Z,7.28
2022-11-30T15:33:43.008Z,7.25
2022-11-30T15:36:27.919Z,7.24
2022-11-30T15:38:56.311Z,7.23
2022-11-30T15:41:25.398Z,7.21
2022-11-30T15:43:55.068Z,7.19
2022-11-30T15:46:46.170Z,7.15
2022-11-30T15:49:22.765Z,7.11
2022-11-30T15:52:00.840Z,7.07
2022-11-30T15:55:03.221Z,7.03
2022-11-30T15:58:02.185Z,7.03
2022-11-30T16:00:29.361Z,6.99
2022-11-30T16:03:13.080Z,7.01
2022-11-30T16:05:40.232Z,6.95
2022-11-30T16:08:16.487Z,6.94
2022-11-30T16:10:43.790Z,6.92
2022-11-30T16:13:18.982Z,6.94
2022-11-30T16:15:47.926Z,6.94
2022-11-30T16:18:23.611Z,6.93
2022-11-30T16:20:53.135Z,6.92
2022-11-30T16:23:20.558Z,6.85
2022-11-30T16:25:48.665Z,6.87
2022-11-30T16:28:17.223Z,6.86
2022-11-30T16:30:45.437Z,6.84
2022-11-30T16:33:17.539Z,6.84
2022-11-30T16:35:53.182Z,6.80
2022-11-30T16:38:20.022Z,6.70
2022-11-30T16:40:46.552Z,6.70
2022-11-30T16:43:13.461Z,6.57
2022-11-30T16:45:41.675Z,6.59
2022-11-30T16:48:08.206Z,6.45
2022-11-30T16:50:34.985Z,6.39
2022-11-30T16:53:05.259Z,6.32
2022-11-30T16:55:37.798Z,6.23
2022-11-30T16:58:05.108Z,6.19
2022-11-30T17:00:32.345Z,6.13
2022-11-30T17:03:16.768Z,6.08
2022-11-30T17:05:43.277Z,6.07
2022-11-30T17:08:10.973Z,6.03
2022-11-30T17:10:38.579Z,5.95
2022-11-30T17:13:05.951Z,5.96
2022-11-30T17:15:32.378Z,5.91
2022-11-30T17:17:59.416Z,5.88
2022-11-30T17:20:27.549Z,5.72
2022-11-30T17:22:54.050Z,5.71
2022-11-30T17:25:23.934Z,5.67
2022-11-30T17:27:51.529Z,5.65
2022-11-30T17:30:20.110Z,5.65
2022-11-30T17:32:47.416Z,5.57
2022-11-30T17:35:14.491Z,5.50
2022-11-30T17:37:40.991Z,5.47
2022-11-30T17:40:08.491Z,5.47
2022-11-30T17:42:34.933Z,5.40
2022-11-30T17:45:01.332Z,5.40
2022-11-30T17:47:27.794Z,5.36
2022-11-30T17:49:54.223Z,5.31
2022-11-30T17:52:20.622Z,5.26
2022-11-30T17:54:47.354Z,5.16
2022-11-30T17:57:14.052Z,5.13
2022-11-30T17:59:40.562Z,5.05
2022-11-30T18:02:09.372Z,5.06
2022-11-30T18:04:35.891Z,5.01
2022-11-30T18:07:02.381Z,5.04
2022-11-30T18:09:28.863Z,5.05
2022-11-30T18:11:55.394Z,5.06
2022-11-30T18:14:21.790Z,5.00
2022-11-30T18:16:48.334Z,4.97
2022-11-30T18:19:15.509Z,5.00
2022-11-30T18:21:44.184Z,4.99
2022-11-30T18:24:12.142Z,4.91
2022-11-30T18:26:39.529Z,4.87
2022-11-30T18:29:06.531Z,4.77
2022-11-30T18:31:33.341Z,4.74
2022-11-30T18:34:02.295Z,4.74
2022-11-30T18:36:29.224Z,4.67
2022-11-30T18:38:56.062Z,4.63
2022-11-30T18:41:26.152Z,4.64
2022-11-30T18:43:53.662Z,4.56
2022-11-30T18:46:20.599Z,4.55
2022-11-30T18:48:51.839Z,4.56
2022-11-30T18:51:21.463Z,4.59
2022-11-30T18:53:47.990Z,4.60
2022-11-30T18:56:20.242Z,4.60
2022-11-30T18:58:47.824Z,4.53
2022-11-30T19:01:19.403Z,4.47
2022-11-30T19:03:59.150Z,4.46
2022-11-30T19:06:29.487Z,4.42
2022-11-30T19:08:56.580Z,4.43
2022-11-30T19:11:23.140Z,4.37
2022-11-30T19:13:57.269Z,4.38
2022-11-30T19:16:24.777Z,4.36
2022-11-30T19:18:52.271Z,4.37
2022-11-30T19:21:21.046Z,4.39
2022-11-30T19:23:48.019Z,4.38
2022-11-30T19:26:15.280Z,4.32
2022-11-30T19:28:43.489Z,4.31
2022-11-30T19:31:11.788Z,4.28
2022-11-30T19:33:39.818Z,4.28
2022-11-30T19:36:08.689Z,4.26
2022-11-30T19:38:35.246Z,4.26
2022-11-30T19:41:20.905Z,4.23
2022-11-30T19:43:54.786Z,4.22
2022-11-30T19:46:24.050Z,4.20
2022-11-30T19:48:55.615Z,4.17
2022-11-30T19:51:22.279Z,4.16
2022-11-30T19:53:48.691Z,4.18
2022-11-30T19:56:17.238Z,4.25
2022-11-30T19:58:45.829Z,4.27
2022-11-30T20:01:17.281Z,4.26
2022-11-30T20:03:45.481Z,4.26
2022-11-30T20:06:12.064Z,4.24
2022-11-30T20:08:39.074Z,4.27
2022-11-30T20:11:07.359Z,4.28
2022-11-30T20:13:33.797Z,4.28
2022-11-30T20:16:07.190Z,4.19
2022-11-30T20:18:33.735Z,4.15
2022-11-30T20:21:13.024Z,4.11
2022-11-30T20:23:40.069Z,4.15
2022-11-30T20:26:21.381Z,4.10
2022-11-30T20:28:48.972Z,4.17
2022-11-30T20:31:17.682Z,4.25
2022-11-30T20:33:44.775Z,4.25
2022-11-30T20:36:11.996Z,4.20
2022-11-30T20:38:39.151Z,4.22
2022-11-30T20:41:09.907Z,4.23
2022-11-30T20:43:36.348Z,4.26
2022-11-30T20:46:02.940Z,4.28
2022-11-30T20:48:29.444Z,4.34
2022-11-30T20:51:22.042Z,4.33
2022-11-30T20:53:42.466Z,4.42
2022-11-30T20:56:09.544Z,4.44
2022-11-30T20:58:36.241Z,4.44
2022-11-30T21:01:19.143Z,4.45
2022-11-30T21:03:46.480Z,4.43
2022-11-30T21:06:14.527Z,4.44
2022-11-30T21:08:41.621Z,4.42
2022-11-30T21:11:11.578Z,4.40
2022-11-30T21:13:38.610Z,4.41
2022-11-30T21:16:07.029Z,4.41
2022-11-30T21:18:38.344Z,4.42
2022-11-30T21:21:07.104Z,4.40
2022-11-30T21:23:33.818Z,4.42
2022-11-30T21:26:04.795Z,4.41
2022-11-30T21:28:37.687Z,4.40
2022-11-30T21:31:04.800Z,4.29
2022-11-30T21:33:31.620Z,4.26
2022-11-30T21:35:58.100Z,4.20
2022-11-30T21:38:24.670Z,4.28
2022-11-30T21:40:59.190Z,4.25
2022-11-30T21:43:26.969Z,4.19
2022-11-30T21:46:07.658Z,4.13
2022-11-30T21:48:36.898Z,4.13
2022-11-30T21:51:18.188Z,4.02
2022-11-30T21:53:47.672Z,3.92
2022-11-30T21:56:17.347Z,3.81
2022-11-30T21:58:46.155Z,3.73
2022-11-30T22:01:14.255Z,3.66
2022-11-30T22:03:41.041Z,3.70
2022-11-30T22:06:10.539Z,3.73
2022-11-30T22:08:37.023Z,3.62
2022-11-30T22:11:05.949Z,3.59
2022-11-30T22:13:33.371Z,3.56
2022-11-30T22:16:02.452Z,3.47
2022-11-30T22:18:29.613Z,3.43
2022-11-30T22:21:05.903Z,3.20
2022-11-30T22:23:34.131Z,3.26
2022-11-30T22:26:28.212Z,3.31
2022-11-30T22:28:56.012Z,3.35
2022-11-30T22:31:25.073Z,3.37
2022-11-30T22:33:51.582Z,3.35
2022-11-30T22:36:21.139Z,3.21
2022-11-30T22:38:52.816Z,3.07
2022-11-30T22:41:19.234Z,2.98
2022-11-30T22:43:46.726Z,3.05
2022-11-30T22:46:16.347Z,3.13
2022-11-30T22:48:45.458Z,3.12
2022-11-30T22:51:15.099Z,3.06
2022-11-30T22:53:41.845Z,3.04
2022-11-30T22:56:12.779Z,2.95
2022-11-30T22:58:41.004Z,2.95
2022-11-30T23:01:12.695Z,3.01
2022-11-30T23:03:40.300Z,2.84
2022-11-30T23:06:07.191Z,2.86
2022-11-30T23:08:34.866Z,2.80
2022-11-30T23:11:04.282Z,2.69
2022-11-30T23:13:31.291Z,2.77
2022-11-30T23:15:59.838Z,2.74
2022-11-30T23:18:27.941Z,2.64
2022-11-30T23:20:55.397Z,2.47
2022-11-30T23:23:25.043Z,2.41
2022-11-30T23:25:51.468Z,2.44
2022-11-30T23:28:17.906Z,2.35
2022-11-30T23:30:44.443Z,2.30
2022-11-30T23:33:10.889Z,2.23
2022-11-30T23:35:43.215Z,2.19
2022-11-30T23:38:10.879Z,2.38
2022-11-30T23:40:37.274Z,2.53
2022-11-30T23:43:03.733Z,2.56
2022-11-30T23:45:30.138Z,2.65
2022-11-30T23:47:56.536Z,2.73
2022-11-30T23:50:22.930Z,2.68
2022-11-30T23:52:49.355Z,2.59
2022-11-30T23:55:15.900Z,2.53
2022-11-30T23:57:42.344Z,2.56
